sensor_id;sensor_type;location;lat;lon;timestamp;P1;durP1;ratioP1;P2;durP2;ratioP2
35418;SDS011;21525;41.240;16.500;2023-04-28T00:02:07;7.75;;;3.55;;
35418;SDS011;21525;41.240;16.500;2023-04-28T00:04:32;9.15;;;3.47;;
35418;SDS011;21525;41.240;16.500;2023-04-28T00:06:58;13.70;;;4.78;;
35418;SDS011;21525;41.240;16.500;2023-04-28T00:09:24;10.65;;;3.22;;
35418;SDS011;21525;41.240;16.500;2023-04-28T00:11:49;8.23;;;3.47;;
35418;SDS011;21525;41.240;16.500;2023-04-28T00:14:15;6.78;;;2.88;;
35418;SDS011;21525;41.240;16.500;2023-04-28T00:16:41;8.55;;;3.33;;
35418;SDS011;21525;41.240;16.500;2023-04-28T00:19:06;8.23;;;3.58;;
35418;SDS011;21525;41.240;16.500;2023-04-28T00:21:32;6.78;;;3.03;;
35418;SDS011;21525;41.240;16.500;2023-04-28T00:23:58;3.85;;;2.55;;
35418;SDS011;21525;41.240;16.500;2023-04-28T00:26:24;6.10;;;2.90;;
35418;SDS011;21525;41.240;16.500;2023-04-28T00:28:49;6.68;;;2.47;;
35418;SDS011;21525;41.240;16.500;2023-04-28T00:31:15;5.35;;;2.78;;
35418;SDS011;21525;41.240;16.500;2023-04-28T00:33:41;4.90;;;2.67;;
35418;SDS011;21525;41.240;16.500;2023-04-28T00:36:08;5.25;;;2.45;;
35418;SDS011;21525;41.240;16.500;2023-04-28T00:38:35;6.45;;;2.38;;
35418;SDS011;21525;41.240;16.500;2023-04-28T00:41:03;7.70;;;2.45;;
35418;SDS011;21525;41.240;16.500;2023-04-28T00:43:28;3.72;;;1.92;;
35418;SDS011;21525;41.240;16.500;2023-04-28T00:45:54;5.00;;;2.40;;
35418;SDS011;21525;41.240;16.500;2023-04-28T00:48:20;6.22;;;2.10;;
35418;SDS011;21525;41.240;16.500;2023-04-28T00:50:46;6.03;;;2.22;;
35418;SDS011;21525;41.240;16.500;2023-04-28T00:53:13;5.88;;;2.70;;
35418;SDS011;21525;41.240;16.500;2023-04-28T00:55:39;3.78;;;1.90;;
35418;SDS011;21525;41.240;16.500;2023-04-28T00:58:05;4.18;;;1.90;;
35418;SDS011;21525;41.240;16.500;2023-04-28T01:00:31;6.50;;;2.10;;
35418;SDS011;21525;41.240;16.500;2023-04-28T01:02:57;4.35;;;2.10;;
35418;SDS011;21525;41.240;16.500;2023-04-28T01:05:24;3.90;;;2.35;;
35418;SDS011;21525;41.240;16.500;2023-04-28T01:07:51;3.00;;;1.95;;
35418;SDS011;21525;41.240;16.500;2023-04-28T01:10:17;4.13;;;2.20;;
35418;SDS011;21525;41.240;16.500;2023-04-28T01:12:43;7.47;;;2.05;;
35418;SDS011;21525;41.240;16.500;2023-04-28T01:15:10;5.15;;;2.38;;
35418;SDS011;21525;41.240;16.500;2023-04-28T01:17:46;7.45;;;2.58;;
35418;SDS011;21525;41.240;16.500;2023-04-28T01:20:12;3.63;;;1.90;;
35418;SDS011;21525;41.240;16.500;2023-04-28T01:22:39;3.88;;;1.77;;
35418;SDS011;21525;41.240;16.500;2023-04-28T01:25:05;3.58;;;1.92;;
35418;SDS011;21525;41.240;16.500;2023-04-28T01:27:31;3.00;;;1.40;;
35418;SDS011;21525;41.240;16.500;2023-04-28T01:29:57;4.68;;;2.17;;
35418;SDS011;21525;41.240;16.500;2023-04-28T01:32:23;3.22;;;1.63;;
35418;SDS011;21525;41.240;16.500;2023-04-28T01:34:48;6.88;;;2.13;;
35418;SDS011;21525;41.240;16.500;2023-04-28T01:37:14;3.25;;;1.48;;
35418;SDS011;21525;41.240;16.500;2023-04-28T01:39:40;3.88;;;1.75;;
35418;SDS011;21525;41.240;16.500;2023-04-28T01:42:06;6.57;;;2.10;;
35418;SDS011;21525;41.240;16.500;2023-04-28T01:44:32;4.25;;;2.70;;
35418;SDS011;21525;41.240;16.500;2023-04-28T01:46:57;3.97;;;2.10;;
35418;SDS011;21525;41.240;16.500;2023-04-28T01:49:23;3.20;;;2.20;;
35418;SDS011;21525;41.240;16.500;2023-04-28T01:51:49;3.30;;;2.00;;
35418;SDS011;21525;41.240;16.500;2023-04-28T01:54:15;5.18;;;2.10;;
35418;SDS011;21525;41.240;16.500;2023-04-28T01:56:40;4.00;;;2.15;;
35418;SDS011;21525;41.240;16.500;2023-04-28T01:59:06;7.65;;;3.00;;
35418;SDS011;21525;41.240;16.500;2023-04-28T02:01:33;7.47;;;2.92;;
35418;SDS011;21525;41.240;16.500;2023-04-28T02:03:59;4.32;;;2.00;;
35418;SDS011;21525;41.240;16.500;2023-04-28T02:06:25;7.07;;;1.98;;
35418;SDS011;21525;41.240;16.500;2023-04-28T02:08:52;3.22;;;1.85;;
35418;SDS011;21525;41.240;16.500;2023-04-28T02:11:18;5.82;;;2.42;;
35418;SDS011;21525;41.240;16.500;2023-04-28T02:13:44;4.18;;;1.60;;
35418;SDS011;21525;41.240;16.500;2023-04-28T02:16:10;3.90;;;1.95;;
35418;SDS011;21525;41.240;16.500;2023-04-28T02:18:36;4.43;;;1.90;;
35418;SDS011;21525;41.240;16.500;2023-04-28T02:21:11;4.45;;;1.95;;
35418;SDS011;21525;41.240;16.500;2023-04-28T02:23:37;3.65;;;1.65;;
35418;SDS011;21525;41.240;16.500;2023-04-28T02:26:04;4.45;;;2.08;;
35418;SDS011;21525;41.240;16.500;2023-04-28T02:28:30;3.88;;;1.67;;
35418;SDS011;21525;41.240;16.500;2023-04-28T02:31:03;6.25;;;2.25;;
35418;SDS011;21525;41.240;16.500;2023-04-28T02:33:33;3.97;;;1.80;;
35418;SDS011;21525;41.240;16.500;2023-04-28T02:36:00;4.82;;;2.15;;
35418;SDS011;21525;41.240;16.500;2023-04-28T02:38:27;2.80;;;1.88;;
35418;SDS011;21525;41.240;16.500;2023-04-28T02:41:00;2.72;;;1.60;;
35418;SDS011;21525;41.240;16.500;2023-04-28T02:43:29;4.53;;;2.00;;
35418;SDS011;21525;41.240;16.500;2023-04-28T02:45:56;2.05;;;1.55;;
35418;SDS011;21525;41.240;16.500;2023-04-28T02:48:22;2.35;;;1.60;;
35418;SDS011;21525;41.240;16.500;2023-04-28T02:50:49;11.98;;;2.85;;
35418;SDS011;21525;41.240;16.500;2023-04-28T02:53:15;5.18;;;2.38;;
35418;SDS011;21525;41.240;16.500;2023-04-28T02:55:41;3.65;;;1.83;;
35418;SDS011;21525;41.240;16.500;2023-04-28T02:58:08;7.78;;;2.92;;
35418;SDS011;21525;41.240;16.500;2023-04-28T03:00:33;7.13;;;2.75;;
35418;SDS011;21525;41.240;16.500;2023-04-28T03:02:59;5.95;;;2.72;;
35418;SDS011;21525;41.240;16.500;2023-04-28T03:05:26;8.18;;;2.50;;
35418;SDS011;21525;41.240;16.500;2023-04-28T03:07:52;3.92;;;2.35;;
35418;SDS011;21525;41.240;16.500;2023-04-28T03:10:19;9.77;;;2.50;;
35418;SDS011;21525;41.240;16.500;2023-04-28T03:12:44;8.45;;;2.72;;
35418;SDS011;21525;41.240;16.500;2023-04-28T03:15:10;10.60;;;2.85;;
35418;SDS011;21525;41.240;16.500;2023-04-28T03:17:36;8.55;;;2.72;;
35418;SDS011;21525;41.240;16.500;2023-04-28T03:20:07;5.97;;;2.20;;
35418;SDS011;21525;41.240;16.500;2023-04-28T03:22:34;11.95;;;2.65;;
35418;SDS011;21525;41.240;16.500;2023-04-28T03:25:00;7.18;;;2.47;;
35418;SDS011;21525;41.240;16.500;2023-04-28T03:27:28;7.60;;;3.08;;
35418;SDS011;21525;41.240;16.500;2023-04-28T03:29:55;6.25;;;2.60;;
35418;SDS011;21525;41.240;16.500;2023-04-28T03:32:21;8.73;;;2.53;;
35418;SDS011;21525;41.240;16.500;2023-04-28T03:34:47;5.88;;;2.80;;
35418;SDS011;21525;41.240;16.500;2023-04-28T03:37:13;4.47;;;2.30;;
35418;SDS011;21525;41.240;16.500;2023-04-28T03:39:39;9.43;;;3.30;;
35418;SDS011;21525;41.240;16.500;2023-04-28T03:42:05;7.93;;;2.65;;
35418;SDS011;21525;41.240;16.500;2023-04-28T03:44:30;4.47;;;2.53;;
35418;SDS011;21525;41.240;16.500;2023-04-28T03:46:57;11.80;;;3.65;;
35418;SDS011;21525;41.240;16.500;2023-04-28T03:49:22;4.63;;;2.65;;
35418;SDS011;21525;41.240;16.500;2023-04-28T03:51:49;9.30;;;3.72;;
35418;SDS011;21525;41.240;16.500;2023-04-28T03:54:16;8.48;;;2.65;;
35418;SDS011;21525;41.240;16.500;2023-04-28T03:56:42;7.22;;;3.72;;
35418;SDS011;21525;41.240;16.500;2023-04-28T03:59:08;14.45;;;4.93;;
35418;SDS011;21525;41.240;16.500;2023-04-28T04:01:37;15.18;;;7.75;;
35418;SDS011;21525;41.240;16.500;2023-04-28T04:04:03;29.73;;;14.00;;
35418;SDS011;21525;41.240;16.500;2023-04-28T04:06:29;20.95;;;11.48;;
35418;SDS011;21525;41.240;16.500;2023-04-28T04:08:56;28.23;;;10.48;;
35418;SDS011;21525;41.240;16.500;2023-04-28T04:11:23;17.15;;;8.85;;
35418;SDS011;21525;41.240;16.500;2023-04-28T04:13:48;12.07;;;6.40;;
35418;SDS011;21525;41.240;16.500;2023-04-28T04:16:15;12.68;;;7.07;;
35418;SDS011;21525;41.240;16.500;2023-04-28T04:18:41;13.60;;;7.47;;
35418;SDS011;21525;41.240;16.500;2023-04-28T04:21:17;20.48;;;8.73;;
35418;SDS011;21525;41.240;16.500;2023-04-28T04:23:44;17.42;;;8.45;;
35418;SDS011;21525;41.240;16.500;2023-04-28T04:26:10;23.88;;;8.25;;
35418;SDS011;21525;41.240;16.500;2023-04-28T04:28:37;12.95;;;6.05;;
35418;SDS011;21525;41.240;16.500;2023-04-28T04:31:04;13.70;;;4.35;;
35418;SDS011;21525;41.240;16.500;2023-04-28T04:33:30;9.60;;;4.38;;
35418;SDS011;21525;41.240;16.500;2023-04-28T04:35:55;10.75;;;4.97;;
35418;SDS011;21525;41.240;16.500;2023-04-28T04:38:21;14.85;;;5.18;;
35418;SDS011;21525;41.240;16.500;2023-04-28T04:40:47;22.23;;;5.93;;
35418;SDS011;21525;41.240;16.500;2023-04-28T04:43:13;13.15;;;5.18;;
35418;SDS011;21525;41.240;16.500;2023-04-28T04:45:44;10.50;;;5.80;;
35418;SDS011;21525;41.240;16.500;2023-04-28T04:48:11;11.18;;;5.25;;
35418;SDS011;21525;41.240;16.500;2023-04-28T04:50:37;8.50;;;4.03;;
35418;SDS011;21525;41.240;16.500;2023-04-28T04:53:03;13.02;;;4.22;;
35418;SDS011;21525;41.240;16.500;2023-04-28T04:55:30;12.52;;;4.78;;
35418;SDS011;21525;41.240;16.500;2023-04-28T04:57:56;13.90;;;5.70;;
35418;SDS011;21525;41.240;16.500;2023-04-28T05:00:28;16.08;;;7.80;;
35418;SDS011;21525;41.240;16.500;2023-04-28T05:02:54;17.75;;;8.05;;
35418;SDS011;21525;41.240;16.500;2023-04-28T05:05:20;17.73;;;5.65;;
35418;SDS011;21525;41.240;16.500;2023-04-28T05:07:52;15.75;;;5.97;;
35418;SDS011;21525;41.240;16.500;2023-04-28T05:10:20;11.02;;;6.97;;
35418;SDS011;21525;41.240;16.500;2023-04-28T05:12:46;17.55;;;8.23;;
35418;SDS011;21525;41.240;16.500;2023-04-28T05:15:12;14.13;;;7.13;;
35418;SDS011;21525;41.240;16.500;2023-04-28T05:17:43;16.67;;;7.40;;
35418;SDS011;21525;41.240;16.500;2023-04-28T05:20:09;19.10;;;7.68;;
35418;SDS011;21525;41.240;16.500;2023-04-28T05:22:35;24.63;;;7.88;;
35418;SDS011;21525;41.240;16.500;2023-04-28T05:25:01;21.02;;;8.32;;
35418;SDS011;21525;41.240;16.500;2023-04-28T05:27:27;16.90;;;7.45;;
35418;SDS011;21525;41.240;16.500;2023-04-28T05:29:53;19.70;;;7.60;;
35418;SDS011;21525;41.240;16.500;2023-04-28T05:32:19;13.10;;;8.13;;
35418;SDS011;21525;41.240;16.500;2023-04-28T05:34:45;29.58;;;14.55;;
35418;SDS011;21525;41.240;16.500;2023-04-28T05:37:11;44.45;;;27.40;;
35418;SDS011;21525;41.240;16.500;2023-04-28T05:39:39;55.70;;;38.50;;
35418;SDS011;21525;41.240;16.500;2023-04-28T05:42:06;63.67;;;44.80;;
35418;SDS011;21525;41.240;16.500;2023-04-28T05:46:59;63.92;;;48.88;;
35418;SDS011;21525;41.240;16.500;2023-04-28T05:49:26;69.43;;;48.30;;
35418;SDS011;21525;41.240;16.500;2023-04-28T05:51:51;61.58;;;48.25;;
35418;SDS011;21525;41.240;16.500;2023-04-28T05:54:17;69.13;;;51.72;;
35418;SDS011;21525;41.240;16.500;2023-04-28T05:56:47;66.88;;;53.72;;
35418;SDS011;21525;41.240;16.500;2023-04-28T05:59:13;68.93;;;51.00;;
35418;SDS011;21525;41.240;16.500;2023-04-28T06:01:40;70.28;;;52.28;;
35418;SDS011;21525;41.240;16.500;2023-04-28T06:04:06;65.93;;;45.13;;
35418;SDS011;21525;41.240;16.500;2023-04-28T06:06:31;62.22;;;42.15;;
35418;SDS011;21525;41.240;16.500;2023-04-28T06:08:59;48.25;;;36.60;;
35418;SDS011;21525;41.240;16.500;2023-04-28T06:11:24;48.70;;;29.95;;
35418;SDS011;21525;41.240;16.500;2023-04-28T06:13:51;42.45;;;27.48;;
35418;SDS011;21525;41.240;16.500;2023-04-28T06:16:17;32.35;;;19.80;;
35418;SDS011;21525;41.240;16.500;2023-04-28T06:18:43;30.00;;;15.65;;
35418;SDS011;21525;41.240;16.500;2023-04-28T06:21:09;30.50;;;12.57;;
35418;SDS011;21525;41.240;16.500;2023-04-28T06:23:35;34.83;;;12.45;;
35418;SDS011;21525;41.240;16.500;2023-04-28T06:26:02;27.65;;;10.82;;
35418;SDS011;21525;41.240;16.500;2023-04-28T06:28:28;23.02;;;9.95;;
35418;SDS011;21525;41.240;16.500;2023-04-28T06:30:55;31.52;;;9.55;;
35418;SDS011;21525;41.240;16.500;2023-04-28T06:33:20;20.27;;;8.30;;
35418;SDS011;21525;41.240;16.500;2023-04-28T06:35:46;18.55;;;7.97;;
35418;SDS011;21525;41.240;16.500;2023-04-28T06:38:14;22.95;;;12.70;;
35418;SDS011;21525;41.240;16.500;2023-04-28T06:40:40;20.48;;;9.80;;
35418;SDS011;21525;41.240;16.500;2023-04-28T06:43:05;18.50;;;9.82;;
35418;SDS011;21525;41.240;16.500;2023-04-28T06:45:39;20.35;;;6.65;;
35418;SDS011;21525;41.240;16.500;2023-04-28T06:48:06;16.13;;;7.03;;
35418;SDS011;21525;41.240;16.500;2023-04-28T06:50:35;14.60;;;6.93;;
35418;SDS011;21525;41.240;16.500;2023-04-28T06:53:04;17.45;;;6.50;;
35418;SDS011;21525;41.240;16.500;2023-04-28T06:55:30;15.25;;;7.43;;
35418;SDS011;21525;41.240;16.500;2023-04-28T06:57:57;16.92;;;8.73;;
35418;SDS011;21525;41.240;16.500;2023-04-28T07:00:23;20.90;;;8.50;;
35418;SDS011;21525;41.240;16.500;2023-04-28T07:02:48;13.15;;;7.28;;
35418;SDS011;21525;41.240;16.500;2023-04-28T07:05:14;14.63;;;7.07;;
35418;SDS011;21525;41.240;16.500;2023-04-28T07:07:40;11.75;;;4.80;;
35418;SDS011;21525;41.240;16.500;2023-04-28T07:10:06;9.85;;;4.50;;
35418;SDS011;21525;41.240;16.500;2023-04-28T07:12:32;10.32;;;4.97;;
35418;SDS011;21525;41.240;16.500;2023-04-28T07:14:58;10.07;;;4.68;;
35418;SDS011;21525;41.240;16.500;2023-04-28T07:17:23;11.70;;;5.13;;
35418;SDS011;21525;41.240;16.500;2023-04-28T07:19:49;11.27;;;4.05;;
35418;SDS011;21525;41.240;16.500;2023-04-28T07:22:15;8.02;;;4.30;;
35418;SDS011;21525;41.240;16.500;2023-04-28T07:24:42;10.80;;;4.80;;
35418;SDS011;21525;41.240;16.500;2023-04-28T07:27:08;12.65;;;4.70;;
35418;SDS011;21525;41.240;16.500;2023-04-28T07:29:34;12.07;;;5.03;;
35418;SDS011;21525;41.240;16.500;2023-04-28T07:32:00;10.15;;;4.40;;
35418;SDS011;21525;41.240;16.500;2023-04-28T07:34:27;6.53;;;3.55;;
35418;SDS011;21525;41.240;16.500;2023-04-28T07:36:53;7.55;;;3.92;;
35418;SDS011;21525;41.240;16.500;2023-04-28T07:39:19;5.72;;;3.92;;
35418;SDS011;21525;41.240;16.500;2023-04-28T07:41:44;9.60;;;3.65;;
35418;SDS011;21525;41.240;16.500;2023-04-28T07:44:10;5.88;;;3.22;;
35418;SDS011;21525;41.240;16.500;2023-04-28T07:46:36;10.52;;;3.85;;
35418;SDS011;21525;41.240;16.500;2023-04-28T07:49:02;8.45;;;4.40;;
35418;SDS011;21525;41.240;16.500;2023-04-28T07:51:29;9.88;;;4.65;;
35418;SDS011;21525;41.240;16.500;2023-04-28T07:53:55;7.07;;;3.80;;
35418;SDS011;21525;41.240;16.500;2023-04-28T07:56:21;6.50;;;3.33;;
35418;SDS011;21525;41.240;16.500;2023-04-28T07:58:47;10.32;;;4.63;;
35418;SDS011;21525;41.240;16.500;2023-04-28T08:01:13;10.70;;;5.00;;
35418;SDS011;21525;41.240;16.500;2023-04-28T08:03:39;7.97;;;3.70;;
35418;SDS011;21525;41.240;16.500;2023-04-28T08:06:05;8.60;;;3.45;;
35418;SDS011;21525;41.240;16.500;2023-04-28T08:08:31;7.60;;;3.25;;
35418;SDS011;21525;41.240;16.500;2023-04-28T08:10:56;6.75;;;3.53;;
35418;SDS011;21525;41.240;16.500;2023-04-28T08:13:23;6.25;;;4.00;;
35418;SDS011;21525;41.240;16.500;2023-04-28T08:15:49;7.50;;;3.33;;
35418;SDS011;21525;41.240;16.500;2023-04-28T08:18:15;5.30;;;2.80;;
35418;SDS011;21525;41.240;16.500;2023-04-28T08:20:41;7.50;;;3.95;;
35418;SDS011;21525;41.240;16.500;2023-04-28T08:23:07;7.53;;;3.17;;
35418;SDS011;21525;41.240;16.500;2023-04-28T08:25:33;7.90;;;3.25;;
35418;SDS011;21525;41.240;16.500;2023-04-28T08:27:59;5.75;;;3.13;;
35418;SDS011;21525;41.240;16.500;2023-04-28T08:30:28;8.20;;;3.50;;
35418;SDS011;21525;41.240;16.500;2023-04-28T08:32:53;5.97;;;2.83;;
35418;SDS011;21525;41.240;16.500;2023-04-28T08:35:19;6.30;;;3.08;;
35418;SDS011;21525;41.240;16.500;2023-04-28T08:37:45;5.60;;;2.78;;
35418;SDS011;21525;41.240;16.500;2023-04-28T08:40:14;9.13;;;3.83;;
35418;SDS011;21525;41.240;16.500;2023-04-28T08:42:40;4.50;;;2.95;;
35418;SDS011;21525;41.240;16.500;2023-04-28T08:45:06;7.25;;;3.08;;
35418;SDS011;21525;41.240;16.500;2023-04-28T08:47:39;8.70;;;4.25;;
35418;SDS011;21525;41.240;16.500;2023-04-28T08:50:14;8.00;;;2.95;;
35418;SDS011;21525;41.240;16.500;2023-04-28T08:52:43;8.55;;;2.53;;
35418;SDS011;21525;41.240;16.500;2023-04-28T08:55:10;5.13;;;2.42;;
35418;SDS011;21525;41.240;16.500;2023-04-28T08:57:38;8.85;;;3.28;;
35418;SDS011;21525;41.240;16.500;2023-04-28T09:00:13;3.40;;;2.40;;
35418;SDS011;21525;41.240;16.500;2023-04-28T09:02:39;5.05;;;2.05;;
35418;SDS011;21525;41.240;16.500;2023-04-28T09:05:07;3.88;;;1.70;;
35418;SDS011;21525;41.240;16.500;2023-04-28T09:07:33;5.88;;;2.60;;
35418;SDS011;21525;41.240;16.500;2023-04-28T09:12:49;6.88;;;2.70;;
35418;SDS011;21525;41.240;16.500;2023-04-28T09:15:27;7.15;;;2.72;;
35418;SDS011;21525;41.240;16.500;2023-04-28T09:17:54;6.05;;;2.80;;
35418;SDS011;21525;41.240;16.500;2023-04-28T09:20:27;3.53;;;2.67;;
35418;SDS011;21525;41.240;16.500;2023-04-28T09:22:54;5.55;;;2.42;;
35418;SDS011;21525;41.240;16.500;2023-04-28T09:25:21;6.38;;;2.80;;
35418;SDS011;21525;41.240;16.500;2023-04-28T09:27:48;5.03;;;3.00;;
35418;SDS011;21525;41.240;16.500;2023-04-28T09:30:14;4.65;;;2.80;;
35418;SDS011;21525;41.240;16.500;2023-04-28T09:32:40;6.22;;;3.05;;
35418;SDS011;21525;41.240;16.500;2023-04-28T09:35:07;5.13;;;2.63;;
35418;SDS011;21525;41.240;16.500;2023-04-28T09:37:33;5.50;;;2.60;;
35418;SDS011;21525;41.240;16.500;2023-04-28T09:40:09;4.95;;;2.83;;
35418;SDS011;21525;41.240;16.500;2023-04-28T09:45:06;4.65;;;2.90;;
35418;SDS011;21525;41.240;16.500;2023-04-28T09:47:37;4.68;;;3.47;;
35418;SDS011;21525;41.240;16.500;2023-04-28T09:50:05;8.30;;;4.18;;
35418;SDS011;21525;41.240;16.500;2023-04-28T09:52:37;6.85;;;4.43;;
35418;SDS011;21525;41.240;16.500;2023-04-28T09:55:03;7.70;;;4.20;;
35418;SDS011;21525;41.240;16.500;2023-04-28T09:57:31;9.73;;;4.70;;
35418;SDS011;21525;41.240;16.500;2023-04-28T09:59:58;9.38;;;4.53;;
35418;SDS011;21525;41.240;16.500;2023-04-28T10:02:25;10.65;;;4.20;;
35418;SDS011;21525;41.240;16.500;2023-04-28T10:04:51;8.05;;;3.20;;
35418;SDS011;21525;41.240;16.500;2023-04-28T10:07:18;6.25;;;3.25;;
35418;SDS011;21525;41.240;16.500;2023-04-28T10:09:48;5.40;;;2.75;;
35418;SDS011;21525;41.240;16.500;2023-04-28T10:12:15;6.60;;;3.03;;
35418;SDS011;21525;41.240;16.500;2023-04-28T10:14:42;3.85;;;2.70;;
35418;SDS011;21525;41.240;16.500;2023-04-28T10:17:09;9.02;;;3.00;;
35418;SDS011;21525;41.240;16.500;2023-04-28T10:19:39;6.38;;;2.80;;
35418;SDS011;21525;41.240;16.500;2023-04-28T10:22:14;5.65;;;2.67;;
35418;SDS011;21525;41.240;16.500;2023-04-28T10:27:31;3.25;;;2.38;;
35418;SDS011;21525;41.240;16.500;2023-04-28T10:40:47;5.65;;;2.30;;
35418;SDS011;21525;41.240;16.500;2023-04-28T10:43:34;5.75;;;3.40;;
35418;SDS011;21525;41.240;16.500;2023-04-28T10:46:07;5.35;;;2.30;;
35418;SDS011;21525;41.240;16.500;2023-04-28T10:58:39;6.28;;;2.50;;
35418;SDS011;21525;41.240;16.500;2023-04-28T11:01:23;5.53;;;3.00;;
35418;SDS011;21525;41.240;16.500;2023-04-28T11:03:50;4.82;;;2.85;;
35418;SDS011;21525;41.240;16.500;2023-04-28T11:06:37;6.30;;;2.70;;
35418;SDS011;21525;41.240;16.500;2023-04-28T11:14:37;5.20;;;2.15;;
35418;SDS011;21525;41.240;16.500;2023-04-28T11:17:07;3.65;;;2.15;;
35418;SDS011;21525;41.240;16.500;2023-04-28T11:19:44;5.03;;;2.20;;
35418;SDS011;21525;41.240;16.500;2023-04-28T11:22:21;3.97;;;2.20;;
35418;SDS011;21525;41.240;16.500;2023-04-28T11:24:57;6.72;;;2.80;;
35418;SDS011;21525;41.240;16.500;2023-04-28T11:27:33;5.50;;;2.45;;
35418;SDS011;21525;41.240;16.500;2023-04-28T11:29:59;4.88;;;2.40;;
35418;SDS011;21525;41.240;16.500;2023-04-28T11:34:52;3.08;;;2.17;;
35418;SDS011;21525;41.240;16.500;2023-04-28T11:37:18;5.63;;;2.30;;
35418;SDS011;21525;41.240;16.500;2023-04-28T11:39:45;5.28;;;2.20;;
35418;SDS011;21525;41.240;16.500;2023-04-28T11:42:12;4.82;;;2.08;;
35418;SDS011;21525;41.240;16.500;2023-04-28T11:44:37;4.80;;;2.45;;
35418;SDS011;21525;41.240;16.500;2023-04-28T11:47:03;4.05;;;2.47;;
35418;SDS011;21525;41.240;16.500;2023-04-28T11:49:31;4.18;;;2.38;;
35418;SDS011;21525;41.240;16.500;2023-04-28T11:52:07;5.65;;;2.65;;
35418;SDS011;21525;41.240;16.500;2023-04-28T11:54:34;6.43;;;2.30;;
35418;SDS011;21525;41.240;16.500;2023-04-28T11:57:01;4.25;;;2.20;;
35418;SDS011;21525;41.240;16.500;2023-04-28T11:59:30;5.00;;;2.45;;
35418;SDS011;21525;41.240;16.500;2023-04-28T12:04:31;4.78;;;2.67;;
35418;SDS011;21525;41.240;16.500;2023-04-28T12:09:38;3.60;;;2.33;;
35418;SDS011;21525;41.240;16.500;2023-04-28T12:12:05;6.27;;;2.97;;
35418;SDS011;21525;41.240;16.500;2023-04-28T12:14:52;6.53;;;2.47;;
35418;SDS011;21525;41.240;16.500;2023-04-28T12:17:44;4.88;;;2.20;;
35418;SDS011;21525;41.240;16.500;2023-04-28T12:20:11;7.25;;;2.20;;
35418;SDS011;21525;41.240;16.500;2023-04-28T12:22:57;3.95;;;2.28;;
35418;SDS011;21525;41.240;16.500;2023-04-28T12:25:23;4.47;;;1.90;;
35418;SDS011;21525;41.240;16.500;2023-04-28T12:28:05;8.40;;;2.20;;
35418;SDS011;21525;41.240;16.500;2023-04-28T12:30:35;4.38;;;1.92;;
35418;SDS011;21525;41.240;16.500;2023-04-28T12:33:21;4.22;;;2.20;;
35418;SDS011;21525;41.240;16.500;2023-04-28T12:35:50;3.65;;;2.50;;
35418;SDS011;21525;41.240;16.500;2023-04-28T12:38:19;3.50;;;1.88;;
35418;SDS011;21525;41.240;16.500;2023-04-28T12:40:44;4.88;;;2.20;;
35418;SDS011;21525;41.240;16.500;2023-04-28T12:43:10;4.70;;;1.90;;
35418;SDS011;21525;41.240;16.500;2023-04-28T12:45:36;5.20;;;2.55;;
35418;SDS011;21525;41.240;16.500;2023-04-28T12:48:02;7.90;;;2.63;;
35418;SDS011;21525;41.240;16.500;2023-04-28T12:50:28;3.55;;;2.03;;
35418;SDS011;21525;41.240;16.500;2023-04-28T12:55:24;4.22;;;2.22;;
35418;SDS011;21525;41.240;16.500;2023-04-28T13:00:19;6.75;;;2.33;;
35418;SDS011;21525;41.240;16.500;2023-04-28T13:02:48;5.95;;;1.90;;
35418;SDS011;21525;41.240;16.500;2023-04-28T13:05:14;3.33;;;2.00;;
35418;SDS011;21525;41.240;16.500;2023-04-28T13:07:40;4.32;;;1.90;;
35418;SDS011;21525;41.240;16.500;2023-04-28T13:10:06;3.03;;;1.73;;
35418;SDS011;21525;41.240;16.500;2023-04-28T13:12:32;4.35;;;2.50;;
35418;SDS011;21525;41.240;16.500;2023-04-28T13:15:01;4.95;;;1.95;;
35418;SDS011;21525;41.240;16.500;2023-04-28T13:17:29;3.00;;;1.70;;
35418;SDS011;21525;41.240;16.500;2023-04-28T13:19:55;5.18;;;2.53;;
35418;SDS011;21525;41.240;16.500;2023-04-28T13:22:20;2.90;;;2.00;;
35418;SDS011;21525;41.240;16.500;2023-04-28T13:24:46;1.75;;;1.60;;
35418;SDS011;21525;41.240;16.500;2023-04-28T13:27:12;4.75;;;2.33;;
35418;SDS011;21525;41.240;16.500;2023-04-28T13:29:38;4.53;;;2.30;;
35418;SDS011;21525;41.240;16.500;2023-04-28T13:32:04;3.25;;;1.83;;
35418;SDS011;21525;41.240;16.500;2023-04-28T13:34:30;3.72;;;2.28;;
35418;SDS011;21525;41.240;16.500;2023-04-28T13:36:56;4.07;;;2.03;;
35418;SDS011;21525;41.240;16.500;2023-04-28T13:39:22;3.17;;;1.70;;
35418;SDS011;21525;41.240;16.500;2023-04-28T13:41:48;6.40;;;2.65;;
35418;SDS011;21525;41.240;16.500;2023-04-28T13:44:14;3.47;;;2.00;;
35418;SDS011;21525;41.240;16.500;2023-04-28T13:46:41;4.57;;;2.00;;
35418;SDS011;21525;41.240;16.500;2023-04-28T13:49:10;4.97;;;1.80;;
35418;SDS011;21525;41.240;16.500;2023-04-28T13:51:36;6.35;;;1.85;;
35418;SDS011;21525;41.240;16.500;2023-04-28T13:54:03;3.38;;;1.67;;
35418;SDS011;21525;41.240;16.500;2023-04-28T13:56:32;5.07;;;1.67;;
35418;SDS011;21525;41.240;16.500;2023-04-28T13:59:00;5.72;;;2.83;;
35418;SDS011;21525;41.240;16.500;2023-04-28T14:01:26;8.68;;;4.07;;
35418;SDS011;21525;41.240;16.500;2023-04-28T14:03:52;10.57;;;5.13;;
35418;SDS011;21525;41.240;16.500;2023-04-28T14:06:18;8.05;;;4.88;;
35418;SDS011;21525;41.240;16.500;2023-04-28T14:08:44;6.88;;;3.25;;
35418;SDS011;21525;41.240;16.500;2023-04-28T14:11:09;10.27;;;2.90;;
35418;SDS011;21525;41.240;16.500;2023-04-28T14:13:36;6.28;;;2.78;;
35418;SDS011;21525;41.240;16.500;2023-04-28T14:16:02;5.25;;;2.40;;
35418;SDS011;21525;41.240;16.500;2023-04-28T14:18:28;6.25;;;2.40;;
35418;SDS011;21525;41.240;16.500;2023-04-28T14:20:54;4.93;;;2.40;;
35418;SDS011;21525;41.240;16.500;2023-04-28T14:23:23;8.13;;;2.55;;
35418;SDS011;21525;41.240;16.500;2023-04-28T14:28:19;5.38;;;2.17;;
35418;SDS011;21525;41.240;16.500;2023-04-28T14:30:45;5.25;;;1.90;;
35418;SDS011;21525;41.240;16.500;2023-04-28T14:33:11;5.57;;;1.90;;
35418;SDS011;21525;41.240;16.500;2023-04-28T14:35:37;4.82;;;2.17;;
35418;SDS011;21525;41.240;16.500;2023-04-28T14:38:04;9.82;;;2.53;;
35418;SDS011;21525;41.240;16.500;2023-04-28T14:40:30;4.53;;;2.40;;
35418;SDS011;21525;41.240;16.500;2023-04-28T14:42:55;5.97;;;2.78;;
35418;SDS011;21525;41.240;16.500;2023-04-28T14:45:22;6.72;;;2.50;;
35418;SDS011;21525;41.240;16.500;2023-04-28T14:47:47;5.13;;;2.47;;
35418;SDS011;21525;41.240;16.500;2023-04-28T14:50:13;6.13;;;2.42;;
35418;SDS011;21525;41.240;16.500;2023-04-28T14:52:40;4.53;;;2.22;;
35418;SDS011;21525;41.240;16.500;2023-04-28T14:55:07;4.60;;;2.30;;
35418;SDS011;21525;41.240;16.500;2023-04-28T14:57:33;3.35;;;1.70;;
35418;SDS011;21525;41.240;16.500;2023-04-28T14:59:59;4.80;;;1.83;;
35418;SDS011;21525;41.240;16.500;2023-04-28T15:02:25;4.38;;;2.00;;
35418;SDS011;21525;41.240;16.500;2023-04-28T15:04:56;5.95;;;1.73;;
35418;SDS011;21525;41.240;16.500;2023-04-28T15:07:23;5.88;;;2.75;;
35418;SDS011;21525;41.240;16.500;2023-04-28T15:09:52;5.18;;;3.80;;
35418;SDS011;21525;41.240;16.500;2023-04-28T15:12:18;7.50;;;4.20;;
35418;SDS011;21525;41.240;16.500;2023-04-28T15:14:45;3.75;;;2.50;;
35418;SDS011;21525;41.240;16.500;2023-04-28T15:17:11;5.38;;;2.00;;
35418;SDS011;21525;41.240;16.500;2023-04-28T15:19:37;3.80;;;1.90;;
35418;SDS011;21525;41.240;16.500;2023-04-28T15:22:03;6.32;;;1.88;;
35418;SDS011;21525;41.240;16.500;2023-04-28T15:24:29;6.07;;;1.55;;